Time;durP1;ratioP1;P1;durP2;ratioP2;P2;SDS_P1;SDS_P2;PMS_P1;PMS_P2;Temp;Humidity;BMP_temperature;BMP_pressure;BME280_temperature;BME280_humidity;BME280_pressure;Samples;Min_cycle;Max_cycle;Signal;HPM_P1;HPM_P2
2021/07/18 00:01:55;;;;;;;7.62;4.00;;;;;;;;;;4402452;32;20233;-55
2021/07/18 00:04:20;;;;;;;4.15;2.85;;;;;;;;;;4404437;32;20692;-55
2021/07/18 00:06:45;;;;;;;4.07;2.95;;;;;;;;;;4406560;32;20231;-55
2021/07/18 00:09:11;;;;;;;8.80;3.22;;;;;;;;;;4406385;32;20221;-55
2021/07/18 00:11:38;;;;;;;3.47;2.90;;;;;;;;;;4406326;32;20245;-56
2021/07/18 00:14:03;;;;;;;4.45;2.97;;;;;;;;;;4405820;32;20551;-54
2021/07/18 00:16:29;;;;;;;9.48;3.40;;;;;;;;;;4406166;32;20280;-55
2021/07/18 00:18:54;;;;;;;5.95;3.65;;;;;;;;;;4406584;32;20213;-55
2021/07/18 00:21:20;;;;;;;11.75;2.53;;;;;;;;;;4406364;32;20244;-55
2021/07/18 00:23:46;;;;;;;11.20;2.37;;;;;;;;;;4406403;32;20225;-56
2021/07/18 00:26:11;;;;;;;4.82;3.22;;;;;;;;;;4406218;32;20239;-55
2021/07/18 00:28:37;;;;;;;5.12;3.90;;;;;;;;;;4405857;32;20201;-56
2021/07/18 00:31:02;;;;;;;7.20;3.33;;;;;;;;;;4406195;32;20318;-55
2021/07/18 00:33:28;;;;;;;5.30;3.20;;;;;;;;;;4405517;32;20240;-55
2021/07/18 00:35:53;;;;;;;9.25;3.12;;;;;;;;;;4405840;32;20314;-55
2021/07/18 00:38:19;;;;;;;5.45;3.53;;;;;;;;;;4405834;32;20706;-55
2021/07/18 00:40:44;;;;;;;7.30;3.17;;;;;;;;;;4405274;32;20293;-55
2021/07/18 00:43:09;;;;;;;5.22;3.00;;;;;;;;;;4406031;32;20217;-56
2021/07/18 00:45:35;;;;;;;5.53;3.20;;;;;;;;;;4406586;32;20268;-55
2021/07/18 00:48:01;;;;;;;4.43;2.70;;;;;;;;;;4405937;32;20220;-55
2021/07/18 00:50:27;;;;;;;8.82;3.50;;;;;;;;;;4406263;32;20341;-55
2021/07/18 00:52:52;;;;;;;3.90;2.78;;;;;;;;;;4405038;32;20307;-55
2021/07/18 00:55:19;;;;;;;3.03;2.50;;;;;;;;;;4405395;32;20277;-55
2021/07/18 00:57:48;;;;;;;7.95;2.92;;;;;;;;;;4405754;32;20530;-55
2021/07/18 01:00:16;;;;;;;3.72;2.47;;;;;;;;;;4405671;32;20198;-56
2021/07/18 01:02:44;;;;;;;8.18;3.60;;;;;;;;;;4405715;32;20223;-55
2021/07/18 01:05:11;;;;;;;5.15;3.40;;;;;;;;;;4405650;32;20292;-55
2021/07/18 01:07:37;;;;;;;6.97;3.42;;;;;;;;;;4405781;32;20198;-56
2021/07/18 01:10:07;;;;;;;3.25;2.90;;;;;;;;;;4405239;32;20661;-56
2021/07/18 01:12:33;;;;;;;6.07;3.55;;;;;;;;;;4406028;32;20289;-55
2021/07/18 01:14:59;;;;;;;6.03;2.92;;;;;;;;;;4405408;32;20229;-55
2021/07/18 01:17:25;;;;;;;4.40;2.97;;;;;;;;;;4405646;32;20615;-56
2021/07/18 01:19:51;;;;;;;4.97;4.07;;;;;;;;;;4405550;32;20291;-55
2021/07/18 01:22:16;;;;;;;6.12;3.35;;;;;;;;;;4405536;32;20682;-54
2021/07/18 01:24:42;;;;;;;4.68;2.70;;;;;;;;;;4404351;32;20307;-55
2021/07/18 01:27:08;;;;;;;5.85;3.00;;;;;;;;;;4404284;32;20358;-56
2021/07/18 01:29:34;;;;;;;7.87;3.45;;;;;;;;;;4405137;32;20217;-54
2021/07/18 01:32:00;;;;;;;4.22;3.03;;;;;;;;;;4405366;32;20210;-55
2021/07/18 01:34:26;;;;;;;5.47;3.55;;;;;;;;;;4405434;32;20255;-55
2021/07/18 01:36:52;;;;;;;6.07;4.28;;;;;;;;;;4405117;32;20269;-55
2021/07/18 01:39:19;;;;;;;4.35;2.95;;;;;;;;;;4405302;32;20244;-55
2021/07/18 01:41:46;;;;;;;7.55;3.47;;;;;;;;;;4405108;32;20285;-55
2021/07/18 01:44:12;;;;;;;4.97;2.97;;;;;;;;;;4405038;32;20288;-55
2021/07/18 01:46:38;;;;;;;4.03;3.40;;;;;;;;;;4405238;32;20293;-56
2021/07/18 01:49:05;;;;;;;6.32;4.12;;;;;;;;;;4403577;32;20218;-55
2021/07/18 01:51:31;;;;;;;5.60;3.65;;;;;;;;;;4405149;32;20288;-55
2021/07/18 01:53:57;;;;;;;4.12;2.92;;;;;;;;;;4404736;32;20314;-55
2021/07/18 01:56:24;;;;;;;3.95;3.08;;;;;;;;;;4405328;32;20276;-55
2021/07/18 01:58:51;;;;;;;6.30;3.20;;;;;;;;;;4405055;32;20218;-55
2021/07/18 02:01:18;;;;;;;4.87;3.28;;;;;;;;;;4405038;32;20233;-55
2021/07/18 02:03:44;;;;;;;6.57;3.10;;;;;;;;;;4405340;32;20209;-55
2021/07/18 02:06:09;;;;;;;3.87;2.95;;;;;;;;;;4404883;32;20229;-55
2021/07/18 02:08:35;;;;;;;6.95;4.20;;;;;;;;;;4405103;32;20577;-56
2021/07/18 02:11:01;;;;;;;8.07;3.83;;;;;;;;;;4404792;32;20236;-55
2021/07/18 02:13:26;;;;;;;5.70;2.92;;;;;;;;;;4404899;32;20217;-55
2021/07/18 02:15:51;;;;;;;11.38;3.25;;;;;;;;;;4404757;32;20373;-55
2021/07/18 02:18:17;;;;;;;4.75;3.03;;;;;;;;;;4403324;32;20658;-55
2021/07/18 02:20:43;;;;;;;9.68;3.25;;;;;;;;;;4404759;32;20276;-55
2021/07/18 02:23:08;;;;;;;9.45;3.00;;;;;;;;;;4404448;32;20221;-55
2021/07/18 02:25:34;;;;;;;6.60;3.60;;;;;;;;;;4404434;32;20248;-55
2021/07/18 02:28:00;;;;;;;4.80;3.62;;;;;;;;;;4404215;32;20220;-56
2021/07/18 02:30:27;;;;;;;5.70;2.72;;;;;;;;;;4403826;32;20205;-55
2021/07/18 02:32:53;;;;;;;4.97;3.58;;;;;;;;;;4404551;32;20209;-56
2021/07/18 02:35:20;;;;;;;6.07;3.45;;;;;;;;;;4404245;32;20537;-56
2021/07/18 02:37:46;;;;;;;6.57;3.05;;;;;;;;;;4404465;32;20202;-55
2021/07/18 02:40:14;;;;;;;6.93;2.62;;;;;;;;;;4404359;32;20801;-55
2021/07/18 02:42:39;;;;;;;5.35;3.30;;;;;;;;;;4404439;32;20272;-55
2021/07/18 02:45:07;;;;;;;6.07;2.80;;;;;;;;;;4404269;32;20347;-55
2021/07/18 02:47:33;;;;;;;6.18;3.15;;;;;;;;;;4403401;32;20383;-55
2021/07/18 02:49:58;;;;;;;5.60;3.45;;;;;;;;;;4404117;32;20646;-56
2021/07/18 02:52:24;;;;;;;5.97;3.30;;;;;;;;;;4403615;32;20266;-55
2021/07/18 02:54:50;;;;;;;5.65;2.95;;;;;;;;;;4403864;32;20206;-56
2021/07/18 02:57:17;;;;;;;11.65;3.30;;;;;;;;;;4404324;32;20263;-57
2021/07/18 02:59:43;;;;;;;3.72;3.33;;;;;;;;;;4402894;32;20308;-56
2021/07/18 03:02:09;;;;;;;9.05;3.22;;;;;;;;;;4404413;32;20316;-57
2021/07/18 03:04:34;;;;;;;8.40;3.62;;;;;;;;;;4403090;32;20621;-55
2021/07/18 03:06:59;;;;;;;5.32;2.92;;;;;;;;;;4403858;32;20281;-55
2021/07/18 03:09:26;;;;;;;4.50;3.20;;;;;;;;;;4403972;32;20217;-55
2021/07/18 03:11:51;;;;;;;6.72;3.28;;;;;;;;;;4403941;32;20590;-55
2021/07/18 03:14:18;;;;;;;7.50;3.50;;;;;;;;;;4403808;32;20225;-55
2021/07/18 03:16:45;;;;;;;4.35;3.12;;;;;;;;;;4404278;32;20550;-55
2021/07/18 03:19:11;;;;;;;6.65;3.80;;;;;;;;;;4403818;32;20218;-55
2021/07/18 03:21:37;;;;;;;16.05;3.83;;;;;;;;;;4403608;32;20282;-55
2021/07/18 03:24:03;;;;;;;7.22;3.87;;;;;;;;;;4403923;32;20292;-55
2021/07/18 03:26:29;;;;;;;4.85;3.67;;;;;;;;;;4403768;32;20778;-57
2021/07/18 03:28:54;;;;;;;4.78;3.35;;;;;;;;;;4397982;32;20249;-56
2021/07/18 03:31:20;;;;;;;5.18;2.85;;;;;;;;;;4388671;32;20689;-55
2021/07/18 03:33:45;;;;;;;3.55;2.58;;;;;;;;;;4388595;32;20304;-54
2021/07/18 03:36:10;;;;;;;5.68;2.70;;;;;;;;;;4388508;32;20727;-54
2021/07/18 03:38:36;;;;;;;7.80;3.15;;;;;;;;;;4388585;32;20218;-55
2021/07/18 03:41:02;;;;;;;8.27;3.80;;;;;;;;;;4388880;32;20368;-55
2021/07/18 03:43:28;;;;;;;6.50;2.90;;;;;;;;;;4388220;32;20240;-57
2021/07/18 03:45:54;;;;;;;3.75;2.65;;;;;;;;;;4389211;32;20203;-55
2021/07/18 03:48:19;;;;;;;3.92;3.28;;;;;;;;;;4388275;32;20304;-55
2021/07/18 03:50:45;;;;;;;6.97;4.87;;;;;;;;;;4403896;32;20209;-55
2021/07/18 03:53:10;;;;;;;5.35;4.18;;;;;;;;;;4402402;32;20220;-56
2021/07/18 03:55:35;;;;;;;6.87;5.00;;;;;;;;;;4402104;32;20674;-56
2021/07/18 03:58:01;;;;;;;7.18;5.72;;;;;;;;;;4403273;32;20603;-56
2021/07/18 04:00:26;;;;;;;7.75;5.40;;;;;;;;;;4402454;32;20705;-55
2021/07/18 04:02:52;;;;;;;6.68;5.28;;;;;;;;;;4401946;32;20397;-56
2021/07/18 04:05:17;;;;;;;8.00;5.82;;;;;;;;;;4403364;32;20243;-55
2021/07/18 04:07:43;;;;;;;12.32;8.13;;;;;;;;;;4403091;32;20265;-55
2021/07/18 04:10:08;;;;;;;18.02;12.02;;;;;;;;;;4403193;32;20251;-54
2021/07/18 04:12:34;;;;;;;10.55;7.55;;;;;;;;;;4403619;32;20559;-55
2021/07/18 04:15:00;;;;;;;10.27;6.87;;;;;;;;;;4403381;32;20590;-54
2021/07/18 04:17:25;;;;;;;8.02;5.80;;;;;;;;;;4402799;32;20357;-55
2021/07/18 04:19:51;;;;;;;12.95;5.20;;;;;;;;;;4403762;32;20240;-55
2021/07/18 04:22:16;;;;;;;10.70;4.25;;;;;;;;;;4403099;32;20268;-55
2021/07/18 04:24:42;;;;;;;6.95;4.22;;;;;;;;;;4403493;32;20303;-55
2021/07/18 04:27:07;;;;;;;8.77;5.15;;;;;;;;;;4403258;32;20367;-56
2021/07/18 04:29:33;;;;;;;5.53;4.07;;;;;;;;;;4403169;32;20213;-55
2021/07/18 04:31:59;;;;;;;6.90;4.07;;;;;;;;;;4403714;32;20276;-55
2021/07/18 04:34:24;;;;;;;6.30;3.28;;;;;;;;;;4403540;32;20282;-55
2021/07/18 04:36:49;;;;;;;7.15;4.05;;;;;;;;;;4403430;32;20273;-54
2021/07/18 04:39:15;;;;;;;5.47;3.55;;;;;;;;;;4403346;32;20217;-55
2021/07/18 04:41:40;;;;;;;11.00;4.50;;;;;;;;;;4403380;32;20272;-57
2021/07/18 04:44:06;;;;;;;11.38;4.72;;;;;;;;;;4403191;32;20218;-55
2021/07/18 04:46:32;;;;;;;7.10;3.50;;;;;;;;;;4403768;32;20314;-55
2021/07/18 04:48:58;;;;;;;6.37;4.32;;;;;;;;;;4403279;32;20271;-55
2021/07/18 04:51:23;;;;;;;7.05;3.87;;;;;;;;;;4404660;32;20201;-55
2021/07/18 04:53:49;;;;;;;6.43;4.22;;;;;;;;;;4405176;32;20224;-55
2021/07/18 04:56:15;;;;;;;6.12;4.05;;;;;;;;;;4405605;32;20318;-55
2021/07/18 04:58:41;;;;;;;6.93;3.65;;;;;;;;;;4405800;32;20218;-55
2021/07/18 05:01:07;;;;;;;7.97;4.28;;;;;;;;;;4405517;32;20632;-55
2021/07/18 05:03:34;;;;;;;7.37;3.95;;;;;;;;;;4405845;32;20305;-55
2021/07/18 05:06:00;;;;;;;9.48;4.28;;;;;;;;;;4404186;32;20260;-54
2021/07/18 05:08:25;;;;;;;4.78;3.70;;;;;;;;;;4405867;32;20213;-54
2021/07/18 05:10:51;;;;;;;7.03;3.97;;;;;;;;;;4404696;32;20250;-55
2021/07/18 05:13:16;;;;;;;6.03;3.62;;;;;;;;;;4405161;32;20240;-55
2021/07/18 05:15:42;;;;;;;7.60;3.80;;;;;;;;;;4404384;32;20697;-54
2021/07/18 05:18:12;;;;;;;6.75;4.37;;;;;;;;;;4405051;32;20240;-54
2021/07/18 05:20:39;;;;;;;7.57;4.30;;;;;;;;;;4405646;32;20194;-54
2021/07/18 05:23:05;;;;;;;7.35;4.07;;;;;;;;;;4405038;32;20322;-55
2021/07/18 05:25:30;;;;;;;12.27;4.00;;;;;;;;;;4405523;32;20236;-56
2021/07/18 05:27:56;;;;;;;6.20;4.45;;;;;;;;;;4404183;32;20636;-55
2021/07/18 05:30:21;;;;;;;7.95;3.35;;;;;;;;;;4392550;32;20218;-55
2021/07/18 05:32:47;;;;;;;5.50;3.92;;;;;;;;;;4390736;32;20289;-57
2021/07/18 05:35:12;;;;;;;4.57;3.22;;;;;;;;;;4389862;32;20301;-55
2021/07/18 05:37:38;;;;;;;5.95;4.30;;;;;;;;;;4389953;32;20273;-55
2021/07/18 05:40:06;;;;;;;6.32;4.00;;;;;;;;;;4390165;32;20213;-55
2021/07/18 05:42:31;;;;;;;7.45;4.00;;;;;;;;;;4396856;32;20333;-56
2021/07/18 05:44:58;;;;;;;4.50;3.15;;;;;;;;;;4405612;32;20281;-55
2021/07/18 05:47:25;;;;;;;5.22;3.58;;;;;;;;;;4405247;32;20239;-56
2021/07/18 05:49:50;;;;;;;6.57;3.40;;;;;;;;;;4405218;32;20577;-55
2021/07/18 05:52:16;;;;;;;9.68;3.22;;;;;;;;;;4403505;32;20363;-56
2021/07/18 05:54:41;;;;;;;8.40;4.25;;;;;;;;;;4405192;32;20622;-55
2021/07/18 05:57:07;;;;;;;10.68;4.00;;;;;;;;;;4405248;32;20294;-55
2021/07/18 05:59:32;;;;;;;7.47;3.92;;;;;;;;;;4405070;32;20330;-55
2021/07/18 06:01:58;;;;;;;5.95;3.83;;;;;;;;;;4404438;32;20276;-56
2021/07/18 06:04:24;;;;;;;4.18;3.45;;;;;;;;;;4404506;32;20221;-55
2021/07/18 06:06:50;;;;;;;8.80;3.65;;;;;;;;;;4404435;32;20670;-56
2021/07/18 06:09:15;;;;;;;8.80;3.60;;;;;;;;;;4403188;32;20225;-55
2021/07/18 06:11:41;;;;;;;7.70;3.55;;;;;;;;;;4403749;32;20241;-54
2021/07/18 06:14:06;;;;;;;5.03;3.37;;;;;;;;;;4404816;32;20230;-55
2021/07/18 06:16:32;;;;;;;5.18;3.60;;;;;;;;;;4404010;32;20433;-55
2021/07/18 06:18:57;;;;;;;7.40;2.87;;;;;;;;;;4403111;32;20606;-55
2021/07/18 06:21:23;;;;;;;10.13;3.65;;;;;;;;;;4402646;32;20284;-54
2021/07/18 06:23:49;;;;;;;4.12;3.30;;;;;;;;;;4403357;32;20267;-54
2021/07/18 06:26:15;;;;;;;9.75;3.70;;;;;;;;;;4403377;32;20284;-55
2021/07/18 06:28:41;;;;;;;6.12;3.28;;;;;;;;;;4401557;32;20236;-55
2021/07/18 06:31:06;;;;;;;6.65;3.37;;;;;;;;;;4402223;32;20767;-55
2021/07/18 06:33:32;;;;;;;4.53;2.50;;;;;;;;;;4403806;32;20286;-55
2021/07/18 06:35:57;;;;;;;5.78;3.40;;;;;;;;;;4404496;32;20271;-55
2021/07/18 06:38:23;;;;;;;4.70;2.90;;;;;;;;;;4404062;32;20296;-55
2021/07/18 06:40:49;;;;;;;3.87;2.83;;;;;;;;;;4404588;32;20688;-55
2021/07/18 06:43:14;;;;;;;5.40;2.65;;;;;;;;;;4403619;32;20237;-55
2021/07/18 06:45:40;;;;;;;4.07;2.83;;;;;;;;;;4404218;32;20201;-55
2021/07/18 06:48:06;;;;;;;12.48;3.33;;;;;;;;;;4404435;32;20256;-55
2021/07/18 06:50:32;;;;;;;3.65;2.87;;;;;;;;;;4402724;32;20585;-56
2021/07/18 06:52:57;;;;;;;3.55;2.85;;;;;;;;;;4403560;32;20353;-55
2021/07/18 06:55:23;;;;;;;5.20;3.35;;;;;;;;;;4403434;32;20229;-55
2021/07/18 06:57:49;;;;;;;4.85;3.33;;;;;;;;;;4404129;32;20302;-56
2021/07/18 07:00:16;;;;;;;3.75;2.85;;;;;;;;;;4404324;32;20202;-55
2021/07/18 07:02:42;;;;;;;4.85;2.83;;;;;;;;;;4404597;32;20237;-56
2021/07/18 07:05:08;;;;;;;4.72;3.10;;;;;;;;;;4402558;32;20768;-56
2021/07/18 07:07:33;;;;;;;4.22;3.35;;;;;;;;;;4392095;32;20273;-57
2021/07/18 07:09:59;;;;;;;4.47;3.30;;;;;;;;;;4388555;32;20260;-56
2021/07/18 07:12:25;;;;;;;6.90;3.45;;;;;;;;;;4389004;32;20574;-55
2021/07/18 07:14:50;;;;;;;10.38;3.53;;;;;;;;;;4389243;32;20678;-55
2021/07/18 07:17:16;;;;;;;4.95;3.10;;;;;;;;;;4399234;32;20194;-54
2021/07/18 07:19:42;;;;;;;5.22;3.03;;;;;;;;;;4393098;32;20246;-55
2021/07/18 07:22:08;;;;;;;7.43;3.58;;;;;;;;;;4403157;32;20272;-55
2021/07/18 07:24:34;;;;;;;7.22;2.97;;;;;;;;;;4401279;32;20225;-56
2021/07/18 07:26:59;;;;;;;7.50;3.30;;;;;;;;;;4401170;32;20220;-56
2021/07/18 07:29:25;;;;;;;4.80;3.40;;;;;;;;;;4401565;32;20256;-54
2021/07/18 07:31:50;;;;;;;4.97;3.15;;;;;;;;;;4396582;32;20271;-54
2021/07/18 07:34:16;;;;;;;7.22;3.33;;;;;;;;;;4403058;32;20289;-55
2021/07/18 07:36:41;;;;;;;8.25;3.30;;;;;;;;;;4403424;32;20644;-56
2021/07/18 07:39:07;;;;;;;5.57;3.58;;;;;;;;;;4389138;32;20309;-56
2021/07/18 07:41:32;;;;;;;5.87;3.78;;;;;;;;;;4388654;32;20312;-57
2021/07/18 07:43:59;;;;;;;7.20;3.17;;;;;;;;;;4389073;32;20762;-55
2021/07/18 07:46:26;;;;;;;4.37;3.35;;;;;;;;;;4389121;32;20632;-56
2021/07/18 07:48:52;;;;;;;9.25;3.78;;;;;;;;;;4389063;32;20623;-56
2021/07/18 07:51:18;;;;;;;4.12;2.90;;;;;;;;;;4388519;32;20303;-56
2021/07/18 07:53:43;;;;;;;5.60;3.10;;;;;;;;;;4388813;32;20297;-55
2021/07/18 07:56:09;;;;;;;6.30;3.50;;;;;;;;;;4388525;32;20626;-54
2021/07/18 07:58:34;;;;;;;3.90;3.17;;;;;;;;;;4386938;32;20389;-55
2021/07/18 08:01:00;;;;;;;5.28;3.62;;;;;;;;;;4392342;32;20285;-56
2021/07/18 08:03:26;;;;;;;9.85;3.83;;;;;;;;;;4388320;32;20214;-55
2021/07/18 08:05:52;;;;;;;7.28;4.05;;;;;;;;;;4402273;32;20334;-55
2021/07/18 08:08:17;;;;;;;8.40;3.75;;;;;;;;;;4402279;32;20256;-55
2021/07/18 08:10:43;;;;;;;4.55;3.10;;;;;;;;;;4403480;32;20322;-56
2021/07/18 08:13:08;;;;;;;7.85;4.40;;;;;;;;;;4403391;32;20213;-55
2021/07/18 08:15:35;;;;;;;6.85;4.82;;;;;;;;;;4403777;32;20295;-55
2021/07/18 08:18:00;;;;;;;4.30;3.03;;;;;;;;;;4403558;32;20209;-55
2021/07/18 08:20:27;;;;;;;6.47;3.72;;;;;;;;;;4403483;32;20607;-56
2021/07/18 08:22:55;;;;;;;5.40;3.58;;;;;;;;;;4403196;32;20418;-55
2021/07/18 08:25:22;;;;;;;7.40;3.53;;;;;;;;;;4403154;32;20490;-56
2021/07/18 08:27:47;;;;;;;4.12;3.10;;;;;;;;;;4406134;32;20210;-56
2021/07/18 08:30:14;;;;;;;6.05;3.67;;;;;;;;;;4406368;32;20731;-56
2021/07/18 08:32:40;;;;;;;3.83;3.17;;;;;;;;;;4406512;32;20247;-55
2021/07/18 08:35:06;;;;;;;4.97;3.55;;;;;;;;;;4406699;32;20530;-55
2021/07/18 08:37:32;;;;;;;8.52;3.70;;;;;;;;;;4406190;32;20241;-55
2021/07/18 08:39:58;;;;;;;7.93;3.72;;;;;;;;;;4406749;32;20213;-55
2021/07/18 08:42:24;;;;;;;3.72;3.03;;;;;;;;;;4405796;32;20625;-56
2021/07/18 08:44:50;;;;;;;4.90;3.70;;;;;;;;;;4405549;32;20213;-56
2021/07/18 08:47:17;;;;;;;6.10;3.67;;;;;;;;;;4406313;32;20406;-57
2021/07/18 08:49:43;;;;;;;4.70;3.65;;;;;;;;;;4405294;32;20289;-56
2021/07/18 08:52:10;;;;;;;5.85;3.42;;;;;;;;;;4405601;32;20353;-55
2021/07/18 08:54:36;;;;;;;4.75;3.95;;;;;;;;;;4405874;32;20225;-55
2021/07/18 08:57:02;;;;;;;4.07;3.33;;;;;;;;;;4406413;32;20372;-56
2021/07/18 08:59:28;;;;;;;6.30;4.00;;;;;;;;;;4406232;32;20361;-55
2021/07/18 09:01:54;;;;;;;3.53;3.00;;;;;;;;;;4406294;32;20677;-56
2021/07/18 09:04:20;;;;;;;4.03;3.47;;;;;;;;;;4405151;32;20205;-56
2021/07/18 09:06:51;;;;;;;8.35;3.97;;;;;;;;;;4405472;32;20284;-56
2021/07/18 09:09:22;;;;;;;5.43;3.50;;;;;;;;;;4405843;32;20322;-55
2021/07/18 09:12:01;;;;;;;5.82;3.65;;;;;;;;;;4405433;32;20589;-55
2021/07/18 09:14:31;;;;;;;4.72;3.10;;;;;;;;;;4404323;32;20314;-55
2021/07/18 09:16:57;;;;;;;6.87;3.92;;;;;;;;;;4405632;32;20262;-56
2021/07/18 09:19:26;;;;;;;7.32;4.30;;;;;;;;;;4405618;32;20320;-57
2021/07/18 09:21:58;;;;;;;4.75;3.08;;;;;;;;;;4405123;32;20333;-56
2021/07/18 09:24:25;;;;;;;3.70;2.90;;;;;;;;;;4403328;32;20675;-55
2021/07/18 09:27:03;;;;;;;3.95;3.10;;;;;;;;;;4404810;32;20216;-56
2021/07/18 09:29:28;;;;;;;4.70;3.62;;;;;;;;;;4403725;32;20230;-56
2021/07/18 09:32:11;;;;;;;9.20;3.53;;;;;;;;;;4405593;32;20306;-54
2021/07/18 09:34:40;;;;;;;8.65;4.12;;;;;;;;;;4404607;32;20315;-57
2021/07/18 09:37:11;;;;;;;5.37;3.87;;;;;;;;;;4404308;32;20599;-55
2021/07/18 09:39:38;;;;;;;9.68;3.85;;;;;;;;;;4404673;32;20342;-56
2021/07/18 09:42:05;;;;;;;10.23;3.97;;;;;;;;;;4403141;32;20559;-56
2021/07/18 09:44:41;;;;;;;8.27;3.90;;;;;;;;;;4404835;32;20642;-56
2021/07/18 09:47:07;;;;;;;13.13;3.67;;;;;;;;;;4404427;32;20296;-57
2021/07/18 09:49:34;;;;;;;4.55;3.30;;;;;;;;;;4404754;32;20292;-56
2021/07/18 09:52:14;;;;;;;5.18;3.12;;;;;;;;;;4405109;32;20647;-56
2021/07/18 09:54:39;;;;;;;7.85;3.95;;;;;;;;;;4404734;32;20229;-56
2021/07/18 09:57:08;;;;;;;11.18;3.78;;;;;;;;;;4404740;32;20349;-56
2021/07/18 09:59:34;;;;;;;5.93;3.95;;;;;;;;;;4402789;32;20562;-56
2021/07/18 10:02:03;;;;;;;4.80;3.83;;;;;;;;;;4403017;32;20331;-57
2021/07/18 10:04:30;;;;;;;8.70;4.62;;;;;;;;;;4402771;32;20225;-56
2021/07/18 10:07:06;;;;;;;9.13;3.75;;;;;;;;;;4404397;32;20296;-57
2021/07/18 10:09:33;;;;;;;3.92;3.20;;;;;;;;;;4403568;32;20251;-56
2021/07/18 10:11:59;;;;;;;4.68;3.50;;;;;;;;;;4389563;32;20241;-56
2021/07/18 10:14:24;;;;;;;9.80;3.78;;;;;;;;;;4388060;32;20267;-55
2021/07/18 10:16:53;;;;;;;3.87;3.40;;;;;;;;;;4388567;32;20356;-55
2021/07/18 10:19:20;;;;;;;4.40;3.58;;;;;;;;;;4389043;32;20308;-56
2021/07/18 10:21:46;;;;;;;4.72;3.90;;;;;;;;;;4390183;32;20287;-55
2021/07/18 10:24:14;;;;;;;4.50;3.50;;;;;;;;;;4387948;32;20292;-55
2021/07/18 10:26:41;;;;;;;8.10;4.20;;;;;;;;;;4389010;32;20214;-56
2021/07/18 10:29:09;;;;;;;8.63;3.40;;;;;;;;;;4389140;32;20217;-56
2021/07/18 10:31:51;;;;;;;10.40;3.53;;;;;;;;;;4388408;32;20267;-56
2021/07/18 10:34:18;;;;;;;5.80;3.92;;;;;;;;;;4389455;32;20256;-55
2021/07/18 10:36:44;;;;;;;4.45;3.08;;;;;;;;;;4388111;32;20704;-55
2021/07/18 10:39:43;;;;;;;4.90;3.33;;;;;;;;;;4385195;32;20222;-56
2021/07/18 10:42:31;;;;;;;5.20;3.60;;;;;;;;;;4360173;32;20226;-55
2021/07/18 10:44:56;;;;;;;6.32;3.58;;;;;;;;;;4389039;32;20241;-56
2021/07/18 10:47:22;;;;;;;4.03;2.97;;;;;;;;;;4389432;32;20285;-56
2021/07/18 10:49:52;;;;;;;4.28;3.20;;;;;;;;;;4388928;32;20268;-55
2021/07/18 10:52:19;;;;;;;6.65;3.80;;;;;;;;;;4389020;32;20540;-55
2021/07/18 10:54:45;;;;;;;4.53;2.97;;;;;;;;;;4387808;32;20278;-56
2021/07/18 10:57:21;;;;;;;7.62;4.25;;;;;;;;;;4389032;32;20676;-55
2021/07/18 10:59:47;;;;;;;6.55;4.53;;;;;;;;;;4388270;32;20265;-55
2021/07/18 11:02:15;;;;;;;5.45;3.50;;;;;;;;;;4389353;32;20753;-56
2021/07/18 11:04:49;;;;;;;5.90;3.47;;;;;;;;;;4386940;32;20256;-56
2021/07/18 11:07:21;;;;;;;6.20;3.95;;;;;;;;;;4385565;32;20260;-57
2021/07/18 11:09:48;;;;;;;5.37;3.35;;;;;;;;;;4391067;32;20229;-56
2021/07/18 11:12:23;;;;;;;4.62;3.72;;;;;;;;;;4403091;32;20254;-56
2021/07/18 11:14:49;;;;;;;4.75;4.05;;;;;;;;;;4402795;32;20212;-56
2021/07/18 11:17:26;;;;;;;5.60;2.97;;;;;;;;;;4403459;32;20789;-58
2021/07/18 11:20:03;;;;;;;5.68;3.58;;;;;;;;;;4402120;32;20230;-56
2021/07/18 11:22:57;;;;;;;4.95;3.85;;;;;;;;;;4400455;32;20221;-56
2021/07/18 11:26:04;;;;;;;8.00;3.58;;;;;;;;;;4400232;32;20295;-56
2021/07/18 11:28:35;;;;;;;7.45;3.75;;;;;;;;;;4371355;32;20341;-55
2021/07/18 11:31:10;;;;;;;6.20;3.50;;;;;;;;;;4398807;32;20341;-55
2021/07/18 11:33:45;;;;;;;4.82;3.45;;;;;;;;;;4388302;32;20236;-57
2021/07/18 11:36:16;;;;;;;8.25;4.32;;;;;;;;;;4388374;32;20725;-56
2021/07/18 11:38:41;;;;;;;5.35;3.87;;;;;;;;;;4400931;32;20317;-56
2021/07/18 11:41:16;;;;;;;5.43;3.50;;;;;;;;;;4403871;32;20292;-57
2021/07/18 11:43:50;;;;;;;5.28;3.65;;;;;;;;;;4404385;32;20702;-55
2021/07/18 11:46:16;;;;;;;12.93;4.40;;;;;;;;;;4403630;32;20260;-56
2021/07/18 11:48:43;;;;;;;7.20;5.07;;;;;;;;;;4403664;32;20229;-56
2021/07/18 11:51:17;;;;;;;7.30;4.15;;;;;;;;;;4403760;32;20677;-56
2021/07/18 11:53:47;;;;;;;4.87;4.07;;;;;;;;;;4403724;32;20319;-56
2021/07/18 11:56:23;;;;;;;5.95;3.92;;;;;;;;;;4404479;32;20334;-56
2021/07/18 11:58:50;;;;;;;5.43;3.80;;;;;;;;;;4404189;32;20225;-55
2021/07/18 12:01:27;;;;;;;4.72;3.60;;;;;;;;;;4405840;32;20679;-57
2021/07/18 12:03:53;;;;;;;10.80;4.53;;;;;;;;;;4407515;32;20247;-55
2021/07/18 12:06:23;;;;;;;4.43;3.42;;;;;;;;;;4407211;32;20735;-55
2021/07/18 12:08:50;;;;;;;4.40;3.83;;;;;;;;;;4406986;32;20225;-56
2021/07/18 12:11:39;;;;;;;7.55;4.53;;;;;;;;;;4402046;32;20320;-56
2021/07/18 12:14:06;;;;;;;8.65;4.22;;;;;;;;;;4404560;32;20313;-57
2021/07/18 12:16:32;;;;;;;7.45;3.80;;;;;;;;;;4401755;32;20292;-56
2021/07/18 12:18:57;;;;;;;6.32;3.65;;;;;;;;;;4393733;32;20295;-56
2021/07/18 12:21:25;;;;;;;9.65;4.75;;;;;;;;;;4402589;32;20285;-55
2021/07/18 12:24:17;;;;;;;7.18;4.10;;;;;;;;;;4401097;32;20225;-55
2021/07/18 12:26:49;;;;;;;8.65;4.30;;;;;;;;;;4396853;32;20280;-56
2021/07/18 12:29:15;;;;;;;10.20;4.07;;;;;;;;;;4398308;32;20323;-55
2021/07/18 12:31:43;;;;;;;4.65;3.75;;;;;;;;;;4400363;32;20613;-55
2021/07/18 12:34:09;;;;;;;4.93;3.55;;;;;;;;;;4399254;32;20714;-55
2021/07/18 12:36:58;;;;;;;8.93;4.55;;;;;;;;;;4403683;32;20268;-57
2021/07/18 12:39:27;;;;;;;10.40;4.75;;;;;;;;;;4389128;32;20750;-55
2021/07/18 12:41:54;;;;;;;17.58;4.37;;;;;;;;;;4388980;32;20340;-55
2021/07/18 12:44:21;;;;;;;6.25;4.70;;;;;;;;;;4389859;32;20345;-56
2021/07/18 12:46:47;;;;;;;7.65;4.57;;;;;;;;;;4402618;32;20266;-57
2021/07/18 12:49:14;;;;;;;12.85;3.95;;;;;;;;;;4405009;32;20284;-55
2021/07/18 12:51:41;;;;;;;6.43;3.75;;;;;;;;;;4404704;32;20319;-56
2021/07/18 12:54:07;;;;;;;4.75;3.80;;;;;;;;;;4400318;32;20538;-55
2021/07/18 12:56:33;;;;;;;5.70;4.43;;;;;;;;;;4397304;32;20340;-55
2021/07/18 12:58:58;;;;;;;5.90;4.68;;;;;;;;;;4395787;32;20219;-55
2021/07/18 13:01:28;;;;;;;5.90;4.70;;;;;;;;;;4396657;32;20346;-55
2021/07/18 13:04:07;;;;;;;11.23;4.90;;;;;;;;;;4397121;32;20288;-54
2021/07/18 13:06:46;;;;;;;7.28;4.50;;;;;;;;;;4399422;32;20831;-55
2021/07/18 13:09:22;;;;;;;6.57;4.75;;;;;;;;;;4396056;32;20284;-55
2021/07/18 13:11:52;;;;;;;5.80;4.20;;;;;;;;;;4396655;32;20632;-56
2021/07/18 13:14:29;;;;;;;7.82;4.20;;;;;;;;;;4399671;32;20267;-55
2021/07/18 13:17:19;;;;;;;4.32;3.92;;;;;;;;;;4396260;32;20279;-57
2021/07/18 13:19:57;;;;;;;5.55;4.70;;;;;;;;;;4399549;32;20214;-55
2021/07/18 13:22:27;;;;;;;5.32;4.22;;;;;;;;;;4398779;32;20209;-56
2021/07/18 13:24:52;;;;;;;8.45;4.15;;;;;;;;;;4397865;32;20355;-55
2021/07/18 13:27:21;;;;;;;7.55;4.55;;;;;;;;;;4396396;32;20307;-56
2021/07/18 13:29:54;;;;;;;6.07;4.90;;;;;;;;;;4397059;32;20210;-56
2021/07/18 13:32:24;;;;;;;7.78;4.72;;;;;;;;;;4396488;32;20217;-56
2021/07/18 13:34:56;;;;;;;6.37;3.97;;;;;;;;;;4396325;32;20267;-55
2021/07/18 13:37:44;;;;;;;7.00;4.22;;;;;;;;;;4397095;32;20263;-56
2021/07/18 13:40:33;;;;;;;7.18;3.90;;;;;;;;;;4397851;32;20214;-56
2021/07/18 13:43:05;;;;;;;4.82;3.92;;;;;;;;;;4395459;32;20206;-57
2021/07/18 13:45:31;;;;;;;5.90;4.18;;;;;;;;;;4389992;32;20291;-57
2021/07/18 13:47:56;;;;;;;11.80;4.47;;;;;;;;;;4390191;32;20655;-56
2021/07/18 13:50:22;;;;;;;5.95;4.72;;;;;;;;;;4390902;32;20607;-56
2021/07/18 13:52:47;;;;;;;9.27;5.12;;;;;;;;;;4403495;32;20714;-55
2021/07/18 13:55:13;;;;;;;9.40;4.43;;;;;;;;;;4404580;32;20602;-58
2021/07/18 13:57:38;;;;;;;5.20;4.20;;;;;;;;;;4405570;32;20314;-56
2021/07/18 14:00:05;;;;;;;12.02;5.12;;;;;;;;;;4403927;32;20244;-56
2021/07/18 14:02:30;;;;;;;5.07;3.92;;;;;;;;;;4404644;32;20292;-57
2021/07/18 14:04:56;;;;;;;6.87;4.50;;;;;;;;;;4405197;32;20223;-55
2021/07/18 14:07:21;;;;;;;8.30;5.05;;;;;;;;;;4401533;32;20343;-56
2021/07/18 14:09:47;;;;;;;5.35;4.30;;;;;;;;;;4403786;32;20296;-56
2021/07/18 14:12:12;;;;;;;7.15;4.57;;;;;;;;;;4405447;32;20261;-56
2021/07/18 14:14:38;;;;;;;6.50;3.87;;;;;;;;;;4405582;32;20251;-56
2021/07/18 14:17:03;;;;;;;6.25;4.05;;;;;;;;;;4404799;32;20284;-55
2021/07/18 14:19:29;;;;;;;7.10;4.25;;;;;;;;;;4404951;32;20225;-56
2021/07/18 14:21:54;;;;;;;6.47;4.22;;;;;;;;;;4405036;32;20291;-56
2021/07/18 14:24:20;;;;;;;5.53;4.12;;;;;;;;;;4403647;32;20239;-56
2021/07/18 14:26:45;;;;;;;5.30;4.43;;;;;;;;;;4405244;32;21054;-55
2021/07/18 14:29:11;;;;;;;3.78;3.20;;;;;;;;;;4404574;32;20309;-56
2021/07/18 14:31:36;;;;;;;5.32;3.78;;;;;;;;;;4403052;32;20327;-56
2021/07/18 14:34:02;;;;;;;7.07;4.45;;;;;;;;;;4402933;32;20669;-56
2021/07/18 14:36:29;;;;;;;6.55;3.72;;;;;;;;;;4404331;32;20288;-55
2021/07/18 14:38:55;;;;;;;5.28;3.45;;;;;;;;;;4404714;32;20278;-55
2021/07/18 14:41:20;;;;;;;7.97;4.30;;;;;;;;;;4404462;32;20318;-56
2021/07/18 14:43:46;;;;;;;4.12;3.47;;;;;;;;;;4404193;32;20642;-55